createdAt,value
2024-02-18T00:02:17.874Z,6.00
2024-02-18T00:07:22.167Z,6.00
2024-02-18T00:12:25.849Z,6.00
2024-02-18T00:17:30.522Z,6.10
2024-02-18T00:22:33.662Z,6.20
2024-02-18T00:27:36.983Z,6.20
2024-02-18T00:32:41.449Z,6.20
2024-02-18T00:37:44.560Z,6.10
2024-02-18T00:42:47.695Z,6.00
2024-02-18T00:47:52.271Z,6.00
2024-02-18T00:52:55.903Z,6.10
2024-02-18T00:57:59.163Z,6.30
2024-02-18T01:03:03.813Z,6.30
2024-02-18T01:08:07.453Z,6.30
2024-02-18T01:13:10.876Z,6.20
2024-02-18T01:18:17.381Z,6.20
2024-02-18T01:23:20.684Z,6.20
2024-02-18T01:28:25.471Z,6.20
2024-02-18T01:33:30.008Z,6.20
2024-02-18T01:38:33.990Z,6.20
2024-02-18T01:43:37.241Z,6.20
2024-02-18T01:48:41.891Z,6.20
2024-02-18T01:53:45.721Z,6.20
2024-02-18T01:58:49.154Z,6.10
2024-02-18T02:03:56.737Z,6.10
2024-02-18T02:09:00.330Z,6.20
2024-02-18T02:14:04.118Z,6.10
2024-02-18T02:19:08.688Z,6.10
2024-02-18T02:24:11.832Z,6.10
2024-02-18T02:29:17.456Z,6.20
2024-02-18T02:34:20.977Z,6.20
2024-02-18T02:39:24.197Z,6.20
2024-02-18T02:44:28.653Z,6.30
2024-02-18T02:49:31.921Z,6.30
2024-02-18T02:54:36.464Z,6.30
2024-02-18T02:59:41.301Z,6.20
2024-02-18T03:04:44.449Z,6.20
2024-02-18T03:09:47.636Z,6.30
2024-02-18T03:14:52.423Z,6.30
2024-02-18T03:19:55.851Z,6.20
2024-02-18T03:25:01.291Z,6.10
2024-02-18T03:30:07.864Z,6.10
2024-02-18T03:35:11.262Z,6.00
2024-02-18T03:40:15.204Z,5.90
2024-02-18T03:45:19.839Z,5.80
2024-02-18T03:50:22.970Z,5.70
2024-02-18T03:55:28.037Z,5.50
2024-02-18T04:00:32.564Z,5.40
2024-02-18T04:05:35.734Z,5.40
2024-02-18T04:10:38.920Z,5.40
2024-02-18T04:15:43.651Z,5.30
2024-02-18T04:20:47.327Z,5.20
2024-02-18T04:25:50.426Z,5.20
2024-02-18T04:30:54.961Z,5.10
2024-02-18T04:35:58.083Z,5.00
2024-02-18T04:41:01.638Z,4.90
2024-02-18T04:46:06.396Z,4.70
2024-02-18T04:51:10.220Z,4.70
2024-02-18T04:56:13.372Z,4.70
2024-02-18T05:01:18.182Z,4.80
2024-02-18T05:06:21.426Z,4.80
2024-02-18T05:11:24.563Z,4.90
2024-02-18T05:16:29.513Z,5.00
2024-02-18T05:21:32.747Z,4.90
2024-02-18T05:26:35.912Z,4.80
2024-02-18T05:31:40.472Z,4.80
2024-02-18T05:36:44.761Z,4.80
2024-02-18T05:41:47.925Z,4.60
2024-02-18T05:46:52.361Z,4.50
2024-02-18T05:51:56.258Z,4.40
2024-02-18T05:56:59.389Z,4.50
2024-02-18T06:02:04.178Z,4.40
2024-02-18T06:07:07.352Z,4.30
2024-02-18T06:12:10.889Z,4.40
2024-02-18T06:17:15.343Z,4.20
2024-02-18T06:22:18.501Z,4.30
2024-02-18T06:27:21.982Z,4.20
2024-02-18T06:32:26.564Z,4.00
2024-02-18T06:37:29.714Z,3.90
2024-02-18T06:42:32.868Z,3.90
2024-02-18T06:47:37.461Z,3.90
2024-02-18T06:52:40.544Z,4.00
2024-02-18T06:57:46.205Z,4.10
2024-02-18T07:02:50.721Z,4.20
2024-02-18T07:07:54.017Z,4.40
2024-02-18T07:12:57.199Z,4.40
2024-02-18T07:18:01.761Z,4.50
2024-02-18T07:23:05.355Z,4.50
2024-02-18T07:28:08.645Z,4.50
2024-02-18T07:33:13.734Z,4.50
2024-02-18T07:38:16.849Z,4.50
2024-02-18T07:43:20.088Z,4.70
2024-02-18T07:48:24.788Z,4.80
2024-02-18T07:53:28.106Z,4.90
2024-02-18T07:58:31.288Z,4.90
2024-02-18T08:03:35.824Z,5.10
2024-02-18T08:08:38.971Z,5.20
2024-02-18T08:13:42.097Z,5.40
2024-02-18T08:18:46.646Z,5.60
2024-02-18T08:23:49.900Z,5.80
2024-02-18T08:28:54.044Z,5.90
2024-02-18T08:33:58.921Z,6.20
2024-02-18T08:39:02.163Z,6.80
2024-02-18T08:44:05.534Z,7.20
2024-02-18T08:49:10.020Z,7.40
2024-02-18T08:54:13.211Z,7.80
2024-02-18T08:59:16.311Z,7.90
2024-02-18T09:04:21.066Z,8.20
2024-02-18T09:09:24.264Z,8.60
2024-02-18T09:14:27.436Z,9.00
2024-02-18T09:19:32.043Z,9.50
2024-02-18T09:24:35.286Z,9.70
2024-02-18T09:29:39.186Z,9.90
2024-02-18T09:34:43.712Z,9.80
2024-02-18T09:39:46.879Z,9.80
2024-02-18T09:44:50.949Z,9.90
2024-02-18T09:49:55.910Z,10.50
2024-02-18T09:55:00.260Z,10.80
2024-02-18T10:00:03.756Z,10.80
2024-02-18T10:05:10.415Z,11.10
2024-02-18T10:10:13.877Z,11.30
2024-02-18T10:15:17.699Z,11.60
2024-02-18T10:20:22.468Z,11.80
2024-02-18T10:25:25.926Z,12.00
2024-02-18T10:30:29.388Z,12.20
2024-02-18T10:35:34.429Z,12.10
2024-02-18T10:45:46.725Z,12.30
2024-02-18T10:50:51.964Z,12.50
2024-02-18T10:56:05.177Z,12.50
2024-02-18T11:01:13.889Z,12.70
2024-02-18T11:06:19.964Z,12.70
2024-02-18T11:11:23.724Z,13.00
2024-02-18T11:16:28.181Z,13.20
2024-02-18T11:21:33.865Z,13.30
2024-02-18T11:26:37.064Z,13.50
2024-02-18T11:31:40.336Z,13.50
2024-02-18T11:36:44.847Z,13.80
2024-02-18T11:41:48.002Z,13.80
2024-02-18T11:46:51.492Z,13.90
2024-02-18T11:51:56.058Z,14.10
2024-02-18T11:56:59.993Z,14.00
2024-02-18T12:02:03.642Z,14.20
2024-02-18T12:07:09.055Z,14.10
2024-02-18T12:12:12.418Z,14.40
2024-02-18T12:17:15.528Z,14.20
2024-02-18T12:22:24.449Z,14.10
2024-02-18T12:27:27.587Z,14.20
2024-02-18T12:32:30.752Z,14.40
2024-02-18T12:37:36.783Z,14.10
2024-02-18T12:42:50.049Z,13.90
2024-02-18T12:48:03.612Z,14.00
2024-02-18T12:53:08.154Z,14.00
2024-02-18T12:58:11.381Z,14.20
2024-02-18T13:03:19.346Z,14.00
2024-02-18T13:08:25.082Z,14.10
2024-02-18T13:13:29.293Z,14.00
2024-02-18T13:18:32.825Z,14.10
2024-02-18T13:23:41.350Z,14.00
2024-02-18T13:28:44.477Z,14.00
2024-02-18T13:33:47.817Z,14.10
2024-02-18T13:38:52.302Z,14.00
2024-02-18T13:43:55.390Z,14.00
2024-02-18T13:48:58.663Z,14.00
2024-02-18T13:54:03.551Z,14.20
2024-02-18T13:59:07.129Z,14.00
2024-02-18T14:04:10.308Z,14.10
2024-02-18T14:09:14.835Z,14.00
2024-02-18T14:14:18.238Z,13.90
2024-02-18T14:19:22.047Z,13.80
2024-02-18T14:24:26.837Z,13.70
2024-02-18T14:29:30.059Z,14.00
2024-02-18T14:34:34.370Z,13.80
2024-02-18T14:39:38.876Z,13.70
2024-02-18T14:44:42.155Z,13.70
2024-02-18T14:49:48.235Z,13.60
2024-02-18T14:54:54.193Z,13.60
2024-02-18T14:59:57.668Z,13.50
2024-02-18T15:05:00.926Z,13.40
2024-02-18T15:10:06.505Z,13.40
2024-02-18T15:15:10.655Z,13.30
2024-02-18T15:20:13.984Z,13.30
2024-02-18T15:25:18.735Z,13.10
2024-02-18T15:30:21.870Z,13.00
2024-02-18T15:35:25.079Z,12.90
2024-02-18T15:40:29.641Z,12.90
2024-02-18T15:45:33.559Z,12.80
2024-02-18T15:50:36.832Z,12.70
2024-02-18T15:55:49.612Z,12.70
2024-02-18T16:01:01.867Z,12.70
2024-02-18T16:06:06.260Z,12.70
2024-02-18T16:11:12.367Z,12.50
2024-02-18T16:16:17.704Z,12.30
2024-02-18T16:21:21.028Z,12.10
2024-02-18T16:26:25.889Z,12.00
2024-02-18T16:31:28.958Z,11.80
2024-02-18T16:36:32.071Z,11.70
2024-02-18T16:41:39.777Z,11.60
2024-02-18T16:46:43.038Z,11.50
2024-02-18T16:51:46.314Z,11.40
2024-02-18T16:56:51.894Z,11.30
2024-02-18T17:01:55.400Z,11.20
2024-02-18T17:06:58.701Z,11.10
2024-02-18T17:12:03.713Z,11.00
2024-02-18T17:17:07.070Z,10.90
2024-02-18T17:22:10.592Z,10.90
2024-02-18T17:27:15.199Z,10.80
2024-02-18T17:32:18.313Z,10.70
2024-02-18T17:37:21.439Z,10.60
2024-02-18T17:42:25.905Z,10.50
2024-02-18T17:47:29.953Z,10.50
2024-02-18T17:52:33.146Z,10.50
2024-02-18T17:57:39.461Z,10.40
2024-02-18T18:02:42.694Z,10.30
2024-02-18T18:07:45.957Z,10.20
2024-02-18T18:12:51.903Z,10.20
2024-02-18T18:17:55.216Z,10.20
2024-02-18T18:22:58.708Z,10.20
2024-02-18T18:28:03.349Z,10.20
2024-02-18T18:33:06.750Z,10.10
2024-02-18T18:38:09.910Z,10.10
2024-02-18T18:43:14.352Z,10.10
2024-02-18T18:48:17.603Z,10.20
2024-02-18T18:53:23.073Z,10.10
2024-02-18T18:58:27.534Z,10.20
2024-02-18T19:03:30.631Z,10.10
2024-02-18T19:08:33.882Z,10.10
2024-02-18T19:13:42.705Z,10.00
2024-02-18T19:18:47.226Z,10.00
2024-02-18T19:23:50.555Z,10.00
2024-02-18T19:28:54.974Z,10.00
2024-02-18T19:33:58.529Z,10.00
2024-02-18T19:39:05.189Z,9.90
2024-02-18T19:44:09.730Z,10.00
2024-02-18T19:49:13.364Z,9.90
2024-02-18T19:54:17.010Z,9.90
2024-02-18T19:59:23.436Z,9.90
2024-02-18T20:04:26.680Z,9.70
2024-02-18T20:09:33.835Z,9.70
2024-02-18T20:14:42.030Z,9.60
2024-02-18T20:19:45.691Z,9.50
2024-02-18T20:24:50.156Z,9.50
2024-02-18T20:29:54.698Z,9.30
2024-02-18T20:34:58.465Z,9.30
2024-02-18T20:40:10.356Z,9.20
2024-02-18T20:45:15.059Z,9.20
2024-02-18T20:50:18.407Z,9.10
2024-02-18T20:55:23.643Z,9.10
2024-02-18T21:00:28.659Z,9.00
2024-02-18T21:05:32.270Z,9.00
2024-02-18T21:10:35.373Z,9.00
2024-02-18T21:15:40.064Z,8.90
2024-02-18T21:20:43.173Z,8.90
2024-02-18T21:25:46.354Z,8.90
2024-02-18T21:30:50.868Z,8.80
2024-02-18T21:35:54.335Z,8.80
2024-02-18T21:40:57.447Z,8.70
2024-02-18T21:46:02.068Z,8.80
2024-02-18T21:51:06.182Z,8.80
2024-02-18T21:56:09.519Z,8.60
2024-02-18T22:01:14.378Z,8.50
2024-02-18T22:06:17.553Z,8.40
2024-02-18T22:11:20.760Z,8.30
2024-02-18T22:16:25.279Z,8.30
2024-02-18T22:21:28.397Z,8.40
2024-02-18T22:26:38.030Z,8.40
2024-02-18T22:31:44.359Z,8.50
2024-02-18T22:36:47.920Z,8.40
2024-02-18T22:41:51.053Z,8.30
2024-02-18T22:46:55.508Z,8.30
2024-02-18T22:51:58.648Z,8.30
2024-02-18T22:57:01.846Z,8.40
2024-02-18T23:02:06.849Z,8.40
2024-02-18T23:07:09.992Z,8.30
2024-02-18T23:12:13.119Z,8.30
2024-02-18T23:17:17.548Z,8.30
2024-02-18T23:22:20.676Z,8.30
2024-02-18T23:27:23.931Z,8.30
2024-02-18T23:32:28.447Z,8.30
2024-02-18T23:37:31.575Z,8.30
2024-02-18T23:42:34.735Z,8.30
2024-02-18T23:47:39.203Z,8.30
2024-02-18T23:52:42.325Z,8.20
2024-02-18T23:57:46.416Z,8.30
